sensor_id;sensor_type;location;lat;lon;timestamp;P1;durP1;ratioP1;P2;durP2;ratioP2
39898;SDS011;25571;47.876;10.642;2023-04-28T00:01:50;2.55;;;2.08;;
39898;SDS011;25571;47.876;10.642;2023-04-28T00:04:15;2.42;;;2.10;;
39898;SDS011;25571;47.876;10.642;2023-04-28T00:06:41;2.70;;;2.20;;
39898;SDS011;25571;47.876;10.642;2023-04-28T00:09:07;2.97;;;1.77;;
39898;SDS011;25571;47.876;10.642;2023-04-28T00:11:35;2.67;;;2.00;;
39898;SDS011;25571;47.876;10.642;2023-04-28T00:14:01;2.90;;;2.20;;
39898;SDS011;25571;47.876;10.642;2023-04-28T00:16:26;1.92;;;1.80;;
39898;SDS011;25571;47.876;10.642;2023-04-28T00:18:52;2.97;;;2.08;;
39898;SDS011;25571;47.876;10.642;2023-04-28T00:21:17;2.08;;;1.75;;
39898;SDS011;25571;47.876;10.642;2023-04-28T00:23:43;2.00;;;1.80;;
39898;SDS011;25571;47.876;10.642;2023-04-28T00:26:08;3.70;;;2.08;;
39898;SDS011;25571;47.876;10.642;2023-04-28T00:28:35;2.03;;;1.80;;
39898;SDS011;25571;47.876;10.642;2023-04-28T00:31:00;2.33;;;2.08;;
39898;SDS011;25571;47.876;10.642;2023-04-28T00:33:26;2.80;;;2.50;;
39898;SDS011;25571;47.876;10.642;2023-04-28T00:36:01;4.22;;;1.80;;
39898;SDS011;25571;47.876;10.642;2023-04-28T00:38:26;3.25;;;2.15;;
39898;SDS011;25571;47.876;10.642;2023-04-28T00:40:52;2.50;;;2.20;;
39898;SDS011;25571;47.876;10.642;2023-04-28T00:43:17;2.22;;;2.00;;
39898;SDS011;25571;47.876;10.642;2023-04-28T00:45:43;2.00;;;1.80;;
39898;SDS011;25571;47.876;10.642;2023-04-28T00:48:08;2.05;;;1.85;;
39898;SDS011;25571;47.876;10.642;2023-04-28T00:50:34;2.25;;;1.75;;
39898;SDS011;25571;47.876;10.642;2023-04-28T00:53:01;3.70;;;2.22;;
39898;SDS011;25571;47.876;10.642;2023-04-28T00:55:26;4.20;;;2.05;;
39898;SDS011;25571;47.876;10.642;2023-04-28T00:57:55;3.83;;;2.17;;
39898;SDS011;25571;47.876;10.642;2023-04-28T01:00:21;2.45;;;2.13;;
39898;SDS011;25571;47.876;10.642;2023-04-28T01:02:48;3.35;;;2.00;;
39898;SDS011;25571;47.876;10.642;2023-04-28T01:05:15;2.90;;;1.75;;
39898;SDS011;25571;47.876;10.642;2023-04-28T01:07:41;3.35;;;2.28;;
39898;SDS011;25571;47.876;10.642;2023-04-28T01:10:06;2.10;;;1.90;;
39898;SDS011;25571;47.876;10.642;2023-04-28T01:12:33;2.17;;;1.75;;
39898;SDS011;25571;47.876;10.642;2023-04-28T01:14:58;2.00;;;1.80;;
39898;SDS011;25571;47.876;10.642;2023-04-28T01:17:24;2.05;;;1.85;;
39898;SDS011;25571;47.876;10.642;2023-04-28T01:19:50;3.60;;;2.10;;
39898;SDS011;25571;47.876;10.642;2023-04-28T01:22:17;2.65;;;1.98;;
39898;SDS011;25571;47.876;10.642;2023-04-28T01:24:42;3.50;;;2.10;;
39898;SDS011;25571;47.876;10.642;2023-04-28T01:27:08;3.25;;;2.22;;
39898;SDS011;25571;47.876;10.642;2023-04-28T01:29:34;2.33;;;2.00;;
39898;SDS011;25571;47.876;10.642;2023-04-28T01:31:59;2.20;;;1.90;;
39898;SDS011;25571;47.876;10.642;2023-04-28T01:34:25;3.38;;;1.90;;
39898;SDS011;25571;47.876;10.642;2023-04-28T01:36:51;4.88;;;2.20;;
39898;SDS011;25571;47.876;10.642;2023-04-28T01:39:16;3.63;;;1.88;;
39898;SDS011;25571;47.876;10.642;2023-04-28T01:41:42;1.65;;;1.52;;
39898;SDS011;25571;47.876;10.642;2023-04-28T01:44:07;2.40;;;1.40;;
39898;SDS011;25571;47.876;10.642;2023-04-28T01:46:33;1.80;;;1.60;;
39898;SDS011;25571;47.876;10.642;2023-04-28T01:48:59;1.30;;;1.20;;
39898;SDS011;25571;47.876;10.642;2023-04-28T01:51:25;1.92;;;1.80;;
39898;SDS011;25571;47.876;10.642;2023-04-28T01:53:51;3.22;;;2.33;;
39898;SDS011;25571;47.876;10.642;2023-04-28T01:56:17;2.33;;;2.13;;
39898;SDS011;25571;47.876;10.642;2023-04-28T01:58:42;2.17;;;1.58;;
39898;SDS011;25571;47.876;10.642;2023-04-28T02:01:08;1.90;;;1.70;;
39898;SDS011;25571;47.876;10.642;2023-04-28T02:03:33;3.03;;;2.30;;
39898;SDS011;25571;47.876;10.642;2023-04-28T02:05:59;2.95;;;2.20;;
39898;SDS011;25571;47.876;10.642;2023-04-28T02:08:24;2.20;;;2.00;;
39898;SDS011;25571;47.876;10.642;2023-04-28T02:10:50;2.63;;;2.08;;
39898;SDS011;25571;47.876;10.642;2023-04-28T02:13:16;3.10;;;1.98;;
39898;SDS011;25571;47.876;10.642;2023-04-28T02:15:42;2.65;;;1.73;;
39898;SDS011;25571;47.876;10.642;2023-04-28T02:18:08;1.92;;;1.50;;
39898;SDS011;25571;47.876;10.642;2023-04-28T02:20:34;3.08;;;1.60;;
39898;SDS011;25571;47.876;10.642;2023-04-28T02:23:00;2.17;;;1.55;;
39898;SDS011;25571;47.876;10.642;2023-04-28T02:25:25;2.20;;;1.60;;
39898;SDS011;25571;47.876;10.642;2023-04-28T02:27:51;2.50;;;1.27;;
39898;SDS011;25571;47.876;10.642;2023-04-28T02:30:17;1.65;;;1.52;;
39898;SDS011;25571;47.876;10.642;2023-04-28T02:32:42;2.92;;;1.85;;
39898;SDS011;25571;47.876;10.642;2023-04-28T02:35:08;1.77;;;1.60;;
39898;SDS011;25571;47.876;10.642;2023-04-28T02:37:33;1.98;;;1.60;;
39898;SDS011;25571;47.876;10.642;2023-04-28T02:39:59;1.55;;;1.45;;
39898;SDS011;25571;47.876;10.642;2023-04-28T02:42:25;1.75;;;1.45;;
39898;SDS011;25571;47.876;10.642;2023-04-28T02:44:51;1.95;;;1.45;;
39898;SDS011;25571;47.876;10.642;2023-04-28T02:47:16;1.88;;;1.25;;
39898;SDS011;25571;47.876;10.642;2023-04-28T02:49:42;1.98;;;1.55;;
39898;SDS011;25571;47.876;10.642;2023-04-28T02:52:07;2.13;;;1.48;;
39898;SDS011;25571;47.876;10.642;2023-04-28T02:54:33;1.77;;;1.50;;
39898;SDS011;25571;47.876;10.642;2023-04-28T02:57:00;2.65;;;1.50;;
39898;SDS011;25571;47.876;10.642;2023-04-28T02:59:28;2.53;;;1.83;;
39898;SDS011;25571;47.876;10.642;2023-04-28T03:01:54;2.03;;;1.80;;
39898;SDS011;25571;47.876;10.642;2023-04-28T03:04:21;1.83;;;1.50;;
39898;SDS011;25571;47.876;10.642;2023-04-28T03:06:46;1.70;;;1.60;;
39898;SDS011;25571;47.876;10.642;2023-04-28T03:09:12;2.70;;;1.60;;
39898;SDS011;25571;47.876;10.642;2023-04-28T03:11:38;2.33;;;1.50;;
39898;SDS011;25571;47.876;10.642;2023-04-28T03:14:03;2.80;;;1.70;;
39898;SDS011;25571;47.876;10.642;2023-04-28T03:16:29;1.48;;;1.33;;
39898;SDS011;25571;47.876;10.642;2023-04-28T03:18:55;1.83;;;1.38;;
39898;SDS011;25571;47.876;10.642;2023-04-28T03:21:20;1.40;;;1.30;;
39898;SDS011;25571;47.876;10.642;2023-04-28T03:23:46;2.80;;;1.60;;
39898;SDS011;25571;47.876;10.642;2023-04-28T03:26:11;2.25;;;1.63;;
39898;SDS011;25571;47.876;10.642;2023-04-28T03:28:37;2.35;;;1.38;;
39898;SDS011;25571;47.876;10.642;2023-04-28T03:31:02;1.48;;;1.30;;
39898;SDS011;25571;47.876;10.642;2023-04-28T03:33:28;1.65;;;1.40;;
39898;SDS011;25571;47.876;10.642;2023-04-28T03:35:54;1.75;;;1.63;;
39898;SDS011;25571;47.876;10.642;2023-04-28T03:38:19;4.30;;;1.65;;
39898;SDS011;25571;47.876;10.642;2023-04-28T03:40:46;1.10;;;1.00;;
39898;SDS011;25571;47.876;10.642;2023-04-28T03:43:12;2.53;;;1.70;;
39898;SDS011;25571;47.876;10.642;2023-04-28T03:45:37;2.00;;;1.80;;
39898;SDS011;25571;47.876;10.642;2023-04-28T03:48:05;2.42;;;2.20;;
39898;SDS011;25571;47.876;10.642;2023-04-28T03:50:31;1.77;;;1.60;;
39898;SDS011;25571;47.876;10.642;2023-04-28T03:52:56;4.38;;;2.33;;
39898;SDS011;25571;47.876;10.642;2023-04-28T03:55:22;2.30;;;2.10;;
39898;SDS011;25571;47.876;10.642;2023-04-28T03:57:48;6.70;;;2.20;;
39898;SDS011;25571;47.876;10.642;2023-04-28T04:00:13;2.22;;;2.03;;
39898;SDS011;25571;47.876;10.642;2023-04-28T04:02:39;2.17;;;1.75;;
39898;SDS011;25571;47.876;10.642;2023-04-28T04:05:05;1.88;;;1.73;;
39898;SDS011;25571;47.876;10.642;2023-04-28T04:07:30;4.00;;;1.70;;
39898;SDS011;25571;47.876;10.642;2023-04-28T04:09:56;1.73;;;1.63;;
39898;SDS011;25571;47.876;10.642;2023-04-28T04:12:21;1.80;;;1.50;;
39898;SDS011;25571;47.876;10.642;2023-04-28T04:14:47;1.75;;;1.50;;
39898;SDS011;25571;47.876;10.642;2023-04-28T04:17:13;1.67;;;1.58;;
39898;SDS011;25571;47.876;10.642;2023-04-28T04:19:38;2.30;;;1.40;;
39898;SDS011;25571;47.876;10.642;2023-04-28T04:22:04;1.33;;;1.20;;
39898;SDS011;25571;47.876;10.642;2023-04-28T04:24:29;2.80;;;1.45;;
39898;SDS011;25571;47.876;10.642;2023-04-28T04:26:55;2.13;;;1.83;;
39898;SDS011;25571;47.876;10.642;2023-04-28T04:29:20;1.60;;;1.50;;
39898;SDS011;25571;47.876;10.642;2023-04-28T04:31:46;1.73;;;1.63;;
39898;SDS011;25571;47.876;10.642;2023-04-28T04:34:13;2.30;;;1.60;;
39898;SDS011;25571;47.876;10.642;2023-04-28T04:36:39;2.15;;;1.45;;
39898;SDS011;25571;47.876;10.642;2023-04-28T04:39:04;1.90;;;1.73;;
39898;SDS011;25571;47.876;10.642;2023-04-28T04:41:30;2.85;;;1.67;;
39898;SDS011;25571;47.876;10.642;2023-04-28T04:43:56;2.40;;;1.73;;
39898;SDS011;25571;47.876;10.642;2023-04-28T04:46:21;1.90;;;1.77;;
39898;SDS011;25571;47.876;10.642;2023-04-28T04:48:47;2.33;;;1.58;;
39898;SDS011;25571;47.876;10.642;2023-04-28T04:51:12;2.78;;;1.63;;
39898;SDS011;25571;47.876;10.642;2023-04-28T04:53:38;2.90;;;1.88;;
39898;SDS011;25571;47.876;10.642;2023-04-28T04:56:04;1.50;;;1.40;;
39898;SDS011;25571;47.876;10.642;2023-04-28T04:58:29;2.00;;;1.70;;
39898;SDS011;25571;47.876;10.642;2023-04-28T05:00:55;2.10;;;1.45;;
39898;SDS011;25571;47.876;10.642;2023-04-28T05:03:21;1.27;;;1.17;;
39898;SDS011;25571;47.876;10.642;2023-04-28T05:05:47;1.58;;;1.40;;
39898;SDS011;25571;47.876;10.642;2023-04-28T05:08:12;2.67;;;1.40;;
39898;SDS011;25571;47.876;10.642;2023-04-28T05:10:38;2.20;;;1.42;;
39898;SDS011;25571;47.876;10.642;2023-04-28T05:13:04;2.38;;;1.40;;
39898;SDS011;25571;47.876;10.642;2023-04-28T05:15:29;2.58;;;1.10;;
39898;SDS011;25571;47.876;10.642;2023-04-28T05:17:55;1.50;;;1.10;;
39898;SDS011;25571;47.876;10.642;2023-04-28T05:20:21;1.17;;;0.95;;
39898;SDS011;25571;47.876;10.642;2023-04-28T05:22:47;1.35;;;0.90;;
39898;SDS011;25571;47.876;10.642;2023-04-28T05:25:13;1.60;;;0.93;;
39898;SDS011;25571;47.876;10.642;2023-04-28T05:27:39;0.90;;;0.85;;
39898;SDS011;25571;47.876;10.642;2023-04-28T05:30:06;1.13;;;0.93;;
39898;SDS011;25571;47.876;10.642;2023-04-28T05:32:33;2.90;;;1.10;;
39898;SDS011;25571;47.876;10.642;2023-04-28T05:34:59;1.38;;;1.00;;
39898;SDS011;25571;47.876;10.642;2023-04-28T05:37:25;1.52;;;0.73;;
39898;SDS011;25571;47.876;10.642;2023-04-28T05:39:50;0.93;;;0.75;;
39898;SDS011;25571;47.876;10.642;2023-04-28T05:42:16;1.20;;;0.98;;
39898;SDS011;25571;47.876;10.642;2023-04-28T05:44:42;1.20;;;1.00;;
39898;SDS011;25571;47.876;10.642;2023-04-28T05:47:07;1.13;;;0.93;;
39898;SDS011;25571;47.876;10.642;2023-04-28T05:49:33;1.35;;;1.08;;
39898;SDS011;25571;47.876;10.642;2023-04-28T05:51:58;1.52;;;1.10;;
39898;SDS011;25571;47.876;10.642;2023-04-28T05:54:24;3.45;;;1.23;;
39898;SDS011;25571;47.876;10.642;2023-04-28T05:56:51;1.50;;;1.40;;
39898;SDS011;25571;47.876;10.642;2023-04-28T05:59:17;2.35;;;1.35;;
39898;SDS011;25571;47.876;10.642;2023-04-28T06:01:43;2.97;;;1.10;;
39898;SDS011;25571;47.876;10.642;2023-04-28T06:04:09;1.73;;;1.20;;
39898;SDS011;25571;47.876;10.642;2023-04-28T06:06:34;1.77;;;1.00;;
39898;SDS011;25571;47.876;10.642;2023-04-28T06:09:01;2.75;;;1.50;;
39898;SDS011;25571;47.876;10.642;2023-04-28T06:11:27;2.72;;;1.38;;
39898;SDS011;25571;47.876;10.642;2023-04-28T06:13:53;2.08;;;1.60;;
39898;SDS011;25571;47.876;10.642;2023-04-28T06:16:18;2.25;;;1.40;;
39898;SDS011;25571;47.876;10.642;2023-04-28T06:18:44;1.75;;;1.35;;
39898;SDS011;25571;47.876;10.642;2023-04-28T06:21:10;1.45;;;1.35;;
39898;SDS011;25571;47.876;10.642;2023-04-28T06:23:36;3.33;;;1.40;;
39898;SDS011;25571;47.876;10.642;2023-04-28T06:26:02;2.65;;;1.40;;
39898;SDS011;25571;47.876;10.642;2023-04-28T06:28:28;2.40;;;1.35;;
39898;SDS011;25571;47.876;10.642;2023-04-28T06:30:54;2.55;;;1.23;;
39898;SDS011;25571;47.876;10.642;2023-04-28T06:33:19;2.13;;;1.02;;
39898;SDS011;25571;47.876;10.642;2023-04-28T06:35:45;1.42;;;1.33;;
39898;SDS011;25571;47.876;10.642;2023-04-28T06:38:11;1.08;;;0.90;;
39898;SDS011;25571;47.876;10.642;2023-04-28T06:40:36;1.00;;;0.88;;
39898;SDS011;25571;47.876;10.642;2023-04-28T06:43:03;2.65;;;1.23;;
39898;SDS011;25571;47.876;10.642;2023-04-28T06:45:29;1.23;;;1.10;;
39898;SDS011;25571;47.876;10.642;2023-04-28T06:47:55;1.25;;;1.10;;
39898;SDS011;25571;47.876;10.642;2023-04-28T06:50:21;1.35;;;1.00;;
39898;SDS011;25571;47.876;10.642;2023-04-28T06:52:47;1.25;;;0.90;;
39898;SDS011;25571;47.876;10.642;2023-04-28T06:55:14;1.17;;;0.90;;
39898;SDS011;25571;47.876;10.642;2023-04-28T06:57:41;0.88;;;0.80;;
39898;SDS011;25571;47.876;10.642;2023-04-28T07:00:07;0.88;;;0.88;;
39898;SDS011;25571;47.876;10.642;2023-04-28T07:02:33;1.38;;;0.90;;
39898;SDS011;25571;47.876;10.642;2023-04-28T07:04:59;1.35;;;0.90;;
39898;SDS011;25571;47.876;10.642;2023-04-28T07:07:24;1.13;;;0.80;;
39898;SDS011;25571;47.876;10.642;2023-04-28T07:09:50;0.90;;;0.90;;
39898;SDS011;25571;47.876;10.642;2023-04-28T07:12:17;1.60;;;0.82;;
39898;SDS011;25571;47.876;10.642;2023-04-28T07:14:43;2.28;;;0.93;;
39898;SDS011;25571;47.876;10.642;2023-04-28T07:17:08;0.90;;;0.80;;
39898;SDS011;25571;47.876;10.642;2023-04-28T07:19:34;1.60;;;0.95;;
39898;SDS011;25571;47.876;10.642;2023-04-28T07:22:00;2.17;;;1.00;;
39898;SDS011;25571;47.876;10.642;2023-04-28T07:24:26;0.63;;;0.60;;
39898;SDS011;25571;47.876;10.642;2023-04-28T07:26:52;1.20;;;1.00;;
39898;SDS011;25571;47.876;10.642;2023-04-28T07:29:18;1.23;;;1.13;;
39898;SDS011;25571;47.876;10.642;2023-04-28T07:31:44;2.13;;;0.80;;
39898;SDS011;25571;47.876;10.642;2023-04-28T07:34:10;1.17;;;1.00;;
39898;SDS011;25571;47.876;10.642;2023-04-28T07:36:35;1.00;;;0.90;;
39898;SDS011;25571;47.876;10.642;2023-04-28T07:39:01;1.15;;;1.05;;
39898;SDS011;25571;47.876;10.642;2023-04-28T07:41:27;0.98;;;0.90;;
39898;SDS011;25571;47.876;10.642;2023-04-28T07:43:53;1.42;;;0.90;;
39898;SDS011;25571;47.876;10.642;2023-04-28T07:46:18;1.55;;;1.15;;
39898;SDS011;25571;47.876;10.642;2023-04-28T07:48:44;1.52;;;0.82;;
39898;SDS011;25571;47.876;10.642;2023-04-28T07:51:09;1.35;;;0.90;;
39898;SDS011;25571;47.876;10.642;2023-04-28T07:53:35;0.98;;;0.80;;
39898;SDS011;25571;47.876;10.642;2023-04-28T07:56:01;0.77;;;0.77;;
39898;SDS011;25571;47.876;10.642;2023-04-28T07:58:26;2.33;;;0.98;;
39898;SDS011;25571;47.876;10.642;2023-04-28T08:00:52;1.60;;;0.95;;
39898;SDS011;25571;47.876;10.642;2023-04-28T08:03:18;1.33;;;1.13;;
39898;SDS011;25571;47.876;10.642;2023-04-28T08:05:43;1.70;;;0.82;;
39898;SDS011;25571;47.876;10.642;2023-04-28T08:08:09;1.27;;;0.70;;
39898;SDS011;25571;47.876;10.642;2023-04-28T08:10:35;1.00;;;0.73;;
39898;SDS011;25571;47.876;10.642;2023-04-28T08:13:04;1.17;;;0.55;;
39898;SDS011;25571;47.876;10.642;2023-04-28T08:15:29;0.40;;;0.40;;
39898;SDS011;25571;47.876;10.642;2023-04-28T08:17:55;1.25;;;0.80;;
39898;SDS011;25571;47.876;10.642;2023-04-28T08:20:21;0.55;;;0.55;;
39898;SDS011;25571;47.876;10.642;2023-04-28T08:22:46;0.47;;;0.32;;
39898;SDS011;25571;47.876;10.642;2023-04-28T08:25:12;1.27;;;0.30;;
39898;SDS011;25571;47.876;10.642;2023-04-28T08:27:38;0.63;;;0.43;;
39898;SDS011;25571;47.876;10.642;2023-04-28T08:30:06;0.30;;;0.30;;
39898;SDS011;25571;47.876;10.642;2023-04-28T08:34:58;0.65;;;0.50;;
39898;SDS011;25571;47.876;10.642;2023-04-28T08:37:25;1.48;;;0.50;;
39898;SDS011;25571;47.876;10.642;2023-04-28T08:39:51;0.90;;;0.50;;
39898;SDS011;25571;47.876;10.642;2023-04-28T08:42:24;0.73;;;0.50;;
39898;SDS011;25571;47.876;10.642;2023-04-28T08:44:53;0.80;;;0.80;;
39898;SDS011;25571;47.876;10.642;2023-04-28T08:47:23;4.05;;;0.88;;
39898;SDS011;25571;47.876;10.642;2023-04-28T08:49:55;0.80;;;0.60;;
39898;SDS011;25571;47.876;10.642;2023-04-28T08:52:32;1.80;;;0.70;;
39898;SDS011;25571;47.876;10.642;2023-04-28T08:54:58;1.80;;;0.73;;
39898;SDS011;25571;47.876;10.642;2023-04-28T08:57:26;1.98;;;1.83;;
39898;SDS011;25571;47.876;10.642;2023-04-28T08:59:54;0.70;;;0.70;;
39898;SDS011;25571;47.876;10.642;2023-04-28T09:02:20;0.60;;;0.60;;
39898;SDS011;25571;47.876;10.642;2023-04-28T09:04:46;0.30;;;0.30;;
39898;SDS011;25571;47.876;10.642;2023-04-28T09:07:12;0.40;;;0.40;;
39898;SDS011;25571;47.876;10.642;2023-04-28T09:09:39;0.60;;;0.60;;
39898;SDS011;25571;47.876;10.642;2023-04-28T09:12:05;0.38;;;0.22;;
39898;SDS011;25571;47.876;10.642;2023-04-28T09:14:32;0.50;;;0.30;;
39898;SDS011;25571;47.876;10.642;2023-04-28T09:16:59;0.30;;;0.30;;
39898;SDS011;25571;47.876;10.642;2023-04-28T09:19:32;0.50;;;0.47;;
39898;SDS011;25571;47.876;10.642;2023-04-28T09:22:00;0.20;;;0.20;;
39898;SDS011;25571;47.876;10.642;2023-04-28T09:24:30;0.60;;;0.30;;
39898;SDS011;25571;47.876;10.642;2023-04-28T09:27:02;0.20;;;0.20;;
39898;SDS011;25571;47.876;10.642;2023-04-28T09:29:29;0.23;;;0.23;;
39898;SDS011;25571;47.876;10.642;2023-04-28T09:32:14;1.67;;;0.25;;
39898;SDS011;25571;47.876;10.642;2023-04-28T09:34:44;0.98;;;0.30;;
39898;SDS011;25571;47.876;10.642;2023-04-28T09:37:15;0.30;;;0.30;;
39898;SDS011;25571;47.876;10.642;2023-04-28T09:39:43;0.28;;;0.28;;
39898;SDS011;25571;47.876;10.642;2023-04-28T09:42:09;1.00;;;0.30;;
39898;SDS011;25571;47.876;10.642;2023-04-28T09:44:35;0.50;;;0.30;;
39898;SDS011;25571;47.876;10.642;2023-04-28T09:47:01;0.38;;;0.32;;
39898;SDS011;25571;47.876;10.642;2023-04-28T09:49:52;0.63;;;0.60;;
39898;SDS011;25571;47.876;10.642;2023-04-28T09:52:22;6.00;;;3.00;;
39898;SDS011;25571;47.876;10.642;2023-04-28T09:54:52;2.13;;;1.30;;
39898;SDS011;25571;47.876;10.642;2023-04-28T09:57:19;1.52;;;1.10;;
39898;SDS011;25571;47.876;10.642;2023-04-28T09:59:46;2.80;;;1.90;;
39898;SDS011;25571;47.876;10.642;2023-04-28T10:02:14;2.40;;;1.80;;
39898;SDS011;25571;47.876;10.642;2023-04-28T10:04:43;1.75;;;1.10;;
39898;SDS011;25571;47.876;10.642;2023-04-28T10:07:11;2.38;;;2.17;;
39898;SDS011;25571;47.876;10.642;2023-04-28T10:09:39;3.70;;;3.03;;
39898;SDS011;25571;47.876;10.642;2023-04-28T10:12:08;3.15;;;2.58;;
39898;SDS011;25571;47.876;10.642;2023-04-28T10:14:34;2.67;;;1.98;;
39898;SDS011;25571;47.876;10.642;2023-04-28T10:17:01;1.55;;;1.20;;
39898;SDS011;25571;47.876;10.642;2023-04-28T10:19:32;1.90;;;1.35;;
39898;SDS011;25571;47.876;10.642;2023-04-28T10:27:41;1.63;;;0.63;;
39898;SDS011;25571;47.876;10.642;2023-04-28T10:32:36;1.92;;;1.33;;
39898;SDS011;25571;47.876;10.642;2023-04-28T10:40:50;11.47;;;8.63;;
39898;SDS011;25571;47.876;10.642;2023-04-28T10:48:16;1.50;;;1.25;;
39898;SDS011;25571;47.876;10.642;2023-04-28T10:56:08;0.52;;;0.47;;
39898;SDS011;25571;47.876;10.642;2023-04-28T10:58:41;0.30;;;0.30;;
39898;SDS011;25571;47.876;10.642;2023-04-28T11:09:04;0.20;;;0.20;;
39898;SDS011;25571;47.876;10.642;2023-04-28T11:14:35;0.38;;;0.38;;
39898;SDS011;25571;47.876;10.642;2023-04-28T11:17:02;0.60;;;0.60;;
39898;SDS011;25571;47.876;10.642;2023-04-28T11:22:01;0.25;;;0.25;;
39898;SDS011;25571;47.876;10.642;2023-04-28T11:24:28;0.60;;;0.30;;
39898;SDS011;25571;47.876;10.642;2023-04-28T11:26:57;0.20;;;0.20;;
39898;SDS011;25571;47.876;10.642;2023-04-28T11:29:33;0.28;;;0.20;;
39898;SDS011;25571;47.876;10.642;2023-04-28T11:32:01;0.85;;;0.35;;
39898;SDS011;25571;47.876;10.642;2023-04-28T11:34:27;1.20;;;0.45;;
39898;SDS011;25571;47.876;10.642;2023-04-28T11:36:53;0.75;;;0.10;;
39898;SDS011;25571;47.876;10.642;2023-04-28T11:39:25;0.10;;;0.10;;
39898;SDS011;25571;47.876;10.642;2023-04-28T11:41:53;0.20;;;0.20;;
39898;SDS011;25571;47.876;10.642;2023-04-28T11:44:20;0.13;;;0.13;;
39898;SDS011;25571;47.876;10.642;2023-04-28T11:46:54;0.20;;;0.20;;
39898;SDS011;25571;47.876;10.642;2023-04-28T11:49:21;0.20;;;0.20;;
39898;SDS011;25571;47.876;10.642;2023-04-28T11:51:52;0.35;;;0.20;;
39898;SDS011;25571;47.876;10.642;2023-04-28T11:54:22;0.73;;;0.30;;
39898;SDS011;25571;47.876;10.642;2023-04-28T11:56:49;0.30;;;0.22;;
39898;SDS011;25571;47.876;10.642;2023-04-28T11:59:17;0.20;;;0.20;;
39898;SDS011;25571;47.876;10.642;2023-04-28T12:01:49;0.20;;;0.20;;
39898;SDS011;25571;47.876;10.642;2023-04-28T12:04:26;0.52;;;0.30;;
39898;SDS011;25571;47.876;10.642;2023-04-28T12:07:12;0.20;;;0.20;;
39898;SDS011;25571;47.876;10.642;2023-04-28T12:09:38;0.28;;;0.20;;
39898;SDS011;25571;47.876;10.642;2023-04-28T12:12:06;0.40;;;0.40;;
39898;SDS011;25571;47.876;10.642;2023-04-28T12:17:27;0.20;;;0.20;;
39898;SDS011;25571;47.876;10.642;2023-04-28T12:19:57;0.10;;;0.10;;
39898;SDS011;25571;47.876;10.642;2023-04-28T12:22:23;0.25;;;0.20;;
39898;SDS011;25571;47.876;10.642;2023-04-28T12:27:28;1.88;;;0.35;;
39898;SDS011;25571;47.876;10.642;2023-04-28T12:29:55;0.63;;;0.20;;
39898;SDS011;25571;47.876;10.642;2023-04-28T12:32:38;0.40;;;0.20;;
39898;SDS011;25571;47.876;10.642;2023-04-28T12:35:05;0.20;;;0.20;;
39898;SDS011;25571;47.876;10.642;2023-04-28T12:37:31;0.20;;;0.20;;
39898;SDS011;25571;47.876;10.642;2023-04-28T12:39:57;0.35;;;0.30;;
39898;SDS011;25571;47.876;10.642;2023-04-28T12:42:23;0.20;;;0.20;;
39898;SDS011;25571;47.876;10.642;2023-04-28T12:44:48;0.32;;;0.30;;
39898;SDS011;25571;47.876;10.642;2023-04-28T12:47:14;0.32;;;0.20;;
39898;SDS011;25571;47.876;10.642;2023-04-28T12:49:42;1.20;;;0.30;;
39898;SDS011;25571;47.876;10.642;2023-04-28T12:52:08;0.75;;;0.20;;
39898;SDS011;25571;47.876;10.642;2023-04-28T12:54:34;0.20;;;0.20;;
39898;SDS011;25571;47.876;10.642;2023-04-28T12:57:00;0.22;;;0.20;;
39898;SDS011;25571;47.876;10.642;2023-04-28T12:59:27;0.28;;;0.20;;
39898;SDS011;25571;47.876;10.642;2023-04-28T13:01:53;0.28;;;0.20;;
39898;SDS011;25571;47.876;10.642;2023-04-28T13:04:19;0.50;;;0.50;;
39898;SDS011;25571;47.876;10.642;2023-04-28T13:06:45;1.35;;;0.40;;
39898;SDS011;25571;47.876;10.642;2023-04-28T13:09:12;1.00;;;0.80;;
39898;SDS011;25571;47.876;10.642;2023-04-28T13:11:39;1.52;;;1.40;;
39898;SDS011;25571;47.876;10.642;2023-04-28T13:14:05;1.10;;;1.00;;
39898;SDS011;25571;47.876;10.642;2023-04-28T13:16:32;0.63;;;0.45;;
39898;SDS011;25571;47.876;10.642;2023-04-28T13:18:58;0.45;;;0.30;;
39898;SDS011;25571;47.876;10.642;2023-04-28T13:21:24;0.40;;;0.40;;
39898;SDS011;25571;47.876;10.642;2023-04-28T13:23:50;1.90;;;0.60;;
39898;SDS011;25571;47.876;10.642;2023-04-28T13:26:20;0.63;;;0.60;;
39898;SDS011;25571;47.876;10.642;2023-04-28T13:28:48;1.10;;;1.00;;
39898;SDS011;25571;47.876;10.642;2023-04-28T13:31:17;0.75;;;0.70;;
39898;SDS011;25571;47.876;10.642;2023-04-28T13:33:43;1.27;;;0.60;;
39898;SDS011;25571;47.876;10.642;2023-04-28T13:36:09;0.60;;;0.60;;
39898;SDS011;25571;47.876;10.642;2023-04-28T13:38:35;0.60;;;0.60;;
39898;SDS011;25571;47.876;10.642;2023-04-28T13:41:00;1.17;;;1.08;;
39898;SDS011;25571;47.876;10.642;2023-04-28T13:43:26;0.70;;;0.70;;
39898;SDS011;25571;47.876;10.642;2023-04-28T13:45:52;1.00;;;0.50;;
39898;SDS011;25571;47.876;10.642;2023-04-28T13:48:18;0.55;;;0.55;;
39898;SDS011;25571;47.876;10.642;2023-04-28T13:50:43;0.55;;;0.55;;
39898;SDS011;25571;47.876;10.642;2023-04-28T13:53:09;0.57;;;0.57;;
39898;SDS011;25571;47.876;10.642;2023-04-28T13:55:36;1.67;;;1.35;;
39898;SDS011;25571;47.876;10.642;2023-04-28T13:58:01;1.33;;;1.13;;
39898;SDS011;25571;47.876;10.642;2023-04-28T14:00:32;2.47;;;0.82;;
39898;SDS011;25571;47.876;10.642;2023-04-28T14:02:59;0.30;;;0.30;;
39898;SDS011;25571;47.876;10.642;2023-04-28T14:05:25;0.20;;;0.20;;
39898;SDS011;25571;47.876;10.642;2023-04-28T14:07:54;0.55;;;0.50;;
39898;SDS011;25571;47.876;10.642;2023-04-28T14:10:20;0.73;;;0.65;;
39898;SDS011;25571;47.876;10.642;2023-04-28T14:12:46;0.20;;;0.20;;
39898;SDS011;25571;47.876;10.642;2023-04-28T14:15:12;0.43;;;0.40;;
39898;SDS011;25571;47.876;10.642;2023-04-28T14:17:38;0.40;;;0.40;;
39898;SDS011;25571;47.876;10.642;2023-04-28T14:20:03;0.20;;;0.20;;
39898;SDS011;25571;47.876;10.642;2023-04-28T14:22:30;0.10;;;0.10;;
39898;SDS011;25571;47.876;10.642;2023-04-28T14:24:55;0.20;;;0.20;;
39898;SDS011;25571;47.876;10.642;2023-04-28T14:27:21;0.50;;;0.20;;
39898;SDS011;25571;47.876;10.642;2023-04-28T14:29:47;0.17;;;0.17;;
39898;SDS011;25571;47.876;10.642;2023-04-28T14:32:13;0.47;;;0.30;;
39898;SDS011;25571;47.876;10.642;2023-04-28T14:34:40;0.30;;;0.30;;
39898;SDS011;25571;47.876;10.642;2023-04-28T14:37:06;0.30;;;0.30;;
39898;SDS011;25571;47.876;10.642;2023-04-28T14:39:32;0.50;;;0.43;;
39898;SDS011;25571;47.876;10.642;2023-04-28T14:41:57;0.47;;;0.30;;
39898;SDS011;25571;47.876;10.642;2023-04-28T14:44:23;0.38;;;0.38;;
39898;SDS011;25571;47.876;10.642;2023-04-28T14:46:49;0.73;;;0.60;;
39898;SDS011;25571;47.876;10.642;2023-04-28T14:49:14;1.90;;;0.50;;
39898;SDS011;25571;47.876;10.642;2023-04-28T14:51:40;0.98;;;0.85;;
39898;SDS011;25571;47.876;10.642;2023-04-28T14:54:06;0.98;;;0.60;;
39898;SDS011;25571;47.876;10.642;2023-04-28T14:56:33;1.20;;;0.60;;
39898;SDS011;25571;47.876;10.642;2023-04-28T14:58:59;0.50;;;0.50;;
39898;SDS011;25571;47.876;10.642;2023-04-28T15:01:24;1.60;;;0.60;;
39898;SDS011;25571;47.876;10.642;2023-04-28T15:03:50;0.65;;;0.65;;
39898;SDS011;25571;47.876;10.642;2023-04-28T15:06:16;0.55;;;0.50;;
39898;SDS011;25571;47.876;10.642;2023-04-28T15:08:41;0.95;;;0.50;;
39898;SDS011;25571;47.876;10.642;2023-04-28T15:11:07;0.65;;;0.52;;
39898;SDS011;25571;47.876;10.642;2023-04-28T15:13:33;0.80;;;0.70;;
39898;SDS011;25571;47.876;10.642;2023-04-28T15:15:58;1.27;;;0.63;;